Arleta, California
Current Conditions -  °F | °C
As of 9:53 AM on Tuesday 27 Jan 2015 (Local Time) from KBUR Reporting Station
Clear Clear  
Wind Chill: 62°   Ceiling: Unl
Heat Index: 62°   Visibility: 10mi
Dew Point: 53°   Wind: 3mph
Humidity: 72%   Direction: 230°SW
Pressure: 30.2"   Gusts: NA
Location:  34.2574°N, 118.255°W
Report Text: KBUR 271753Z 23003KT 10SM CLR 17/12 A3020 RMK AO2 SLP219 60001 T01670117 10172 20122 51008
Loading
Personal Weather Stations






























Interactive Weather Map New forecast layout! Learn more

10-Day Weather Forecast

Advertisements
Track Severe Weather on mobile